Time;durP1;ratioP1;P1;durP2;ratioP2;P2;SDS_P1;SDS_P2;PMS_P1;PMS_P2;Temp;Humidity;BMP_temperature;BMP_pressure;BME280_temperature;BME280_humidity;BME280_pressure;Samples;Min_cycle;Max_cycle;Signal;HPM_P1;HPM_P2
2024/04/09 00:00:27;;;;;;;22.25;20.13;;;;;;;;;;5408004;26;19995;-53
2024/04/09 00:02:54;;;;;;;25.50;22.92;;;;;;;;;;5440822;26;20087;-55
2024/04/09 00:05:19;;;;;;;24.65;22.17;;;;;;;;;;5441139;26;20002;-49
2024/04/09 00:07:45;;;;;;;23.17;20.73;;;;;;;;;;5441043;26;20339;-49
2024/04/09 00:10:12;;;;;;;55.00;50.80;;;;;;;;;;5349566;26;20011;-49
2024/04/09 00:12:38;;;;;;;25.30;22.65;;;;;;;;;;5440721;26;20013;-51
2024/04/09 00:15:12;;;;;;;25.52;23.15;;;;;;;;;;5440392;26;19994;-49
2024/04/09 00:17:54;;;;;;;26.45;23.27;;;;;;;;;;5440384;26;20003;-51
2024/04/09 00:20:20;;;;;;;22.83;20.52;;;;;;;;;;5440179;26;19995;-49
2024/04/09 00:22:49;;;;;;;23.42;21.13;;;;;;;;;;5440972;26;20011;-55
2024/04/09 00:25:18;;;;;;;22.13;20.00;;;;;;;;;;5440364;26;20006;-49
2024/04/09 00:27:44;;;;;;;25.05;22.52;;;;;;;;;;5440483;26;20003;-53
2024/04/09 00:30:09;;;;;;;23.50;21.35;;;;;;;;;;5440893;26;19998;-50
2024/04/09 00:32:36;;;;;;;28.23;25.35;;;;;;;;;;5438894;26;20002;-50
2024/04/09 00:35:03;;;;;;;24.90;22.60;;;;;;;;;;5440126;26;20442;-47
2024/04/09 00:37:29;;;;;;;26.48;23.98;;;;;;;;;;5440761;26;20017;-51
2024/04/09 00:39:54;;;;;;;24.73;22.50;;;;;;;;;;5440158;26;20443;-52
2024/04/09 00:42:20;;;;;;;22.55;20.65;;;;;;;;;;5440833;26;20485;-51
2024/04/09 00:44:47;;;;;;;21.40;19.55;;;;;;;;;;5407609;26;20442;-49
2024/04/09 00:47:16;;;;;;;26.25;23.75;;;;;;;;;;5440365;26;20010;-50
2024/04/09 00:49:42;;;;;;;23.85;21.65;;;;;;;;;;5408767;26;20031;-49
2024/04/09 00:52:07;;;;;;;23.25;21.08;;;;;;;;;;5440384;26;19995;-51
2024/04/09 00:54:35;;;;;;;22.05;19.90;;;;;;;;;;5440268;26;20075;-53
2024/04/09 00:57:01;;;;;;;24.73;22.48;;;;;;;;;;5440080;26;19991;-54
2024/04/09 00:59:26;;;;;;;22.08;19.98;;;;;;;;;;5440409;26;20006;-52
2024/04/09 01:01:52;;;;;;;21.33;19.27;;;;;;;;;;5440278;26;20594;-50
2024/04/09 01:04:17;;;;;;;25.27;22.83;;;;;;;;;;5440280;26;19998;-52
2024/04/09 01:06:43;;;;;;;25.05;22.70;;;;;;;;;;5440053;26;19999;-49
2024/04/09 01:09:09;;;;;;;24.38;21.95;;;;;;;;;;5439825;26;20423;-52
2024/04/09 01:11:35;;;;;;;26.25;23.70;;;;;;;;;;5439723;26;19998;-52
2024/04/09 01:14:00;;;;;;;26.52;24.10;;;;;;;;;;5439422;26;20010;-51
2024/04/09 01:16:25;;;;;;;21.60;19.73;;;;;;;;;;5440541;26;20007;-51
2024/04/09 01:18:51;;;;;;;22.35;20.30;;;;;;;;;;5439886;26;20064;-50
2024/04/09 01:21:16;;;;;;;27.00;24.58;;;;;;;;;;5439758;26;20036;-53
2024/04/09 01:23:41;;;;;;;26.80;24.40;;;;;;;;;;5407017;26;20022;-49
2024/04/09 01:26:09;;;;;;;26.73;24.23;;;;;;;;;;5439614;26;20039;-53
2024/04/09 01:28:36;;;;;;;26.38;24.13;;;;;;;;;;5439930;26;20071;-50
2024/04/09 01:31:01;;;;;;;26.75;24.42;;;;;;;;;;5438280;26;19995;-53
2024/04/09 01:33:27;;;;;;;27.15;24.90;;;;;;;;;;5439682;26;20007;-48
2024/04/09 01:35:53;;;;;;;28.88;26.38;;;;;;;;;;5439387;26;19998;-51
2024/04/09 01:38:19;;;;;;;27.70;25.15;;;;;;;;;;5439553;26;20459;-48
2024/04/09 01:40:44;;;;;;;27.63;25.15;;;;;;;;;;5439369;26;20009;-48
2024/04/09 01:43:09;;;;;;;27.45;24.88;;;;;;;;;;5439551;26;19994;-51
2024/04/09 01:45:35;;;;;;;24.23;21.98;;;;;;;;;;5439120;26;20025;-50
2024/04/09 01:48:00;;;;;;;24.77;22.70;;;;;;;;;;5439584;26;20003;-54
2024/04/09 01:50:26;;;;;;;26.30;23.83;;;;;;;;;;5439665;26;20023;-50
2024/04/09 01:52:51;;;;;;;25.35;23.02;;;;;;;;;;5439538;26;19998;-53
2024/04/09 01:55:17;;;;;;;25.02;22.58;;;;;;;;;;5439170;26;20067;-51
2024/04/09 01:57:44;;;;;;;28.00;25.35;;;;;;;;;;5439149;26;19995;-53
2024/04/09 02:00:12;;;;;;;21.73;19.58;;;;;;;;;;5407724;26;20332;-53
2024/04/09 02:02:40;;;;;;;24.92;21.67;;;;;;;;;;5439050;26;20507;-52
2024/04/09 02:05:07;;;;;;;24.80;22.33;;;;;;;;;;5439152;26;20003;-51
2024/04/09 02:07:33;;;;;;;28.77;25.73;;;;;;;;;;5439234;26;20391;-52
2024/04/09 02:09:58;;;;;;;23.35;20.95;;;;;;;;;;5438606;26;19999;-52
2024/04/09 02:12:23;;;;;;;20.80;18.77;;;;;;;;;;5406631;26;20359;-50
2024/04/09 02:14:49;;;;;;;21.73;19.60;;;;;;;;;;5439473;26;19991;-52
2024/04/09 02:17:14;;;;;;;22.02;19.85;;;;;;;;;;5439292;26;20001;-51
2024/04/09 02:19:40;;;;;;;24.50;22.15;;;;;;;;;;5439104;26;19991;-53
2024/04/09 02:22:05;;;;;;;22.27;19.85;;;;;;;;;;5439242;26;20553;-49
2024/04/09 02:24:30;;;;;;;25.65;23.00;;;;;;;;;;5439174;26;20439;-50
2024/04/09 02:26:57;;;;;;;22.55;20.45;;;;;;;;;;5438808;26;20010;-51
2024/04/09 02:29:23;;;;;;;20.35;18.38;;;;;;;;;;5438621;26;19998;-50
2024/04/09 02:31:48;;;;;;;19.25;17.30;;;;;;;;;;5438915;26;20003;-51
2024/04/09 02:34:14;;;;;;;22.75;20.45;;;;;;;;;;5439372;26;20475;-51
2024/04/09 02:36:39;;;;;;;20.63;18.65;;;;;;;;;;5438616;26;20002;-52
2024/04/09 02:39:08;;;;;;;21.38;19.42;;;;;;;;;;5439009;26;19990;-52
2024/04/09 02:41:35;;;;;;;22.40;19.98;;;;;;;;;;5407187;26;20006;-50
2024/04/09 02:44:01;;;;;;;20.85;18.80;;;;;;;;;;5442027;26;20451;-49
2024/04/09 02:46:26;;;;;;;25.02;22.55;;;;;;;;;;5442157;26;20067;-51
2024/04/09 02:48:52;;;;;;;22.88;20.70;;;;;;;;;;5442182;26;20010;-51
2024/04/09 02:51:17;;;;;;;24.27;21.98;;;;;;;;;;5442106;26;19995;-52
2024/04/09 02:53:42;;;;;;;22.52;20.23;;;;;;;;;;5379311;26;19995;-47
2024/04/09 02:56:08;;;;;;;23.35;20.85;;;;;;;;;;5442241;26;20010;-49
2024/04/09 02:58:34;;;;;;;22.58;20.33;;;;;;;;;;5442034;26;19990;-52
2024/04/09 03:01:04;;;;;;;20.65;18.63;;;;;;;;;;5410694;26;20117;-52
2024/04/09 03:03:30;;;;;;;21.60;19.35;;;;;;;;;;5442265;26;19999;-49
2024/04/09 03:05:56;;;;;;;21.48;19.42;;;;;;;;;;5441661;26;20006;-47
2024/04/09 03:08:21;;;;;;;19.23;17.08;;;;;;;;;;5442495;26;20038;-50
2024/04/09 03:10:46;;;;;;;21.05;18.92;;;;;;;;;;5441490;26;19999;-48
2024/04/09 03:13:12;;;;;;;37.10;23.55;;;;;;;;;;5441645;26;20615;-50
2024/04/09 03:15:37;;;;;;;21.55;19.35;;;;;;;;;;5441426;26;20536;-47
2024/04/09 03:18:03;;;;;;;19.45;17.52;;;;;;;;;;5441961;26;20010;-51
2024/04/09 03:20:28;;;;;;;22.73;20.30;;;;;;;;;;5441669;26;20002;-52
2024/04/09 03:22:53;;;;;;;21.17;19.08;;;;;;;;;;5441411;26;20443;-49
2024/04/09 03:25:19;;;;;;;20.80;18.73;;;;;;;;;;5441480;26;20002;-55
2024/04/09 03:27:44;;;;;;;22.10;18.85;;;;;;;;;;5441525;26;20529;-52
2024/04/09 03:30:09;;;;;;;22.25;20.15;;;;;;;;;;5441664;26;20013;-52
2024/04/09 03:32:35;;;;;;;20.67;18.27;;;;;;;;;;5441951;26;20013;-50
2024/04/09 03:35:00;;;;;;;16.73;15.00;;;;;;;;;;5441322;26;20477;-50
2024/04/09 03:37:25;;;;;;;22.30;20.05;;;;;;;;;;5408742;26;20072;-48
2024/04/09 03:39:51;;;;;;;24.13;21.67;;;;;;;;;;5441486;26;20616;-54
2024/04/09 03:42:16;;;;;;;21.40;19.35;;;;;;;;;;5441424;26;19995;-51
2024/04/09 03:44:41;;;;;;;19.92;17.98;;;;;;;;;;5441420;26;20459;-50
2024/04/09 03:47:07;;;;;;;23.33;20.88;;;;;;;;;;5441271;26;20027;-50
2024/04/09 03:49:33;;;;;;;21.75;19.52;;;;;;;;;;5441389;26;20265;-49
2024/04/09 03:51:59;;;;;;;24.10;20.80;;;;;;;;;;5441092;26;20268;-51
2024/04/09 03:54:24;;;;;;;21.98;19.42;;;;;;;;;;5440420;26;20050;-55
2024/04/09 03:56:50;;;;;;;23.77;21.35;;;;;;;;;;5441183;26;20335;-49
2024/04/09 03:59:15;;;;;;;18.58;16.73;;;;;;;;;;5441407;26;20877;-48
2024/04/09 04:01:40;;;;;;;23.58;21.13;;;;;;;;;;5441141;26;20005;-52
2024/04/09 04:04:06;;;;;;;23.48;21.08;;;;;;;;;;5441155;26;19991;-49
2024/04/09 04:06:31;;;;;;;24.58;21.77;;;;;;;;;;5441186;26;20607;-52
2024/04/09 04:08:56;;;;;;;25.63;23.10;;;;;;;;;;5440879;26;20001;-51
2024/04/09 04:11:21;;;;;;;22.00;19.98;;;;;;;;;;5408627;26;20388;-50
2024/04/09 04:13:47;;;;;;;23.67;21.35;;;;;;;;;;5441036;26;19999;-52
2024/04/09 04:16:13;;;;;;;23.33;20.85;;;;;;;;;;5441033;26;19999;-54
2024/04/09 04:18:45;;;;;;;23.38;20.40;;;;;;;;;;5440498;26;20423;-55
2024/04/09 04:21:14;;;;;;;22.92;20.63;;;;;;;;;;5440465;26;20002;-50
2024/04/09 04:23:39;;;;;;;17.77;16.00;;;;;;;;;;5441063;26;19998;-54
2024/04/09 04:26:06;;;;;;;24.38;21.35;;;;;;;;;;5440298;26;20002;-50
2024/04/09 04:28:32;;;;;;;24.00;20.80;;;;;;;;;;5441060;26;20003;-55
2024/04/09 04:30:58;;;;;;;24.08;21.83;;;;;;;;;;5440877;26;20003;-49
2024/04/09 04:33:24;;;;;;;22.35;20.30;;;;;;;;;;5440702;26;20009;-54
2024/04/09 04:35:50;;;;;;;23.83;21.58;;;;;;;;;;5440746;26;20006;-48
2024/04/09 04:38:15;;;;;;;22.80;20.58;;;;;;;;;;5440069;26;20013;-49
2024/04/09 04:40:40;;;;;;;22.33;20.15;;;;;;;;;;5440947;26;19999;-49
2024/04/09 04:43:06;;;;;;;24.02;21.23;;;;;;;;;;5440792;26;20600;-50
2024/04/09 04:45:31;;;;;;;22.52;20.15;;;;;;;;;;5440498;26;20075;-52
2024/04/09 04:47:57;;;;;;;25.05;22.45;;;;;;;;;;5439767;26;20336;-52
2024/04/09 04:50:22;;;;;;;23.10;20.75;;;;;;;;;;5440796;26;20009;-49
2024/04/09 04:52:48;;;;;;;25.40;22.70;;;;;;;;;;5439706;26;20002;-50
2024/04/09 04:55:13;;;;;;;23.15;20.90;;;;;;;;;;5440513;26;20650;-50
2024/04/09 04:57:38;;;;;;;26.60;23.90;;;;;;;;;;5439914;26;20003;-52
2024/04/09 05:00:09;;;;;;;24.42;21.25;;;;;;;;;;5439972;26;20006;-50
2024/04/09 05:02:34;;;;;;;27.25;22.83;;;;;;;;;;5440247;26;20077;-51
2024/04/09 05:05:00;;;;;;;24.77;22.40;;;;;;;;;;5439844;26;20014;-50
2024/04/09 05:07:25;;;;;;;23.90;21.58;;;;;;;;;;5440220;26;20469;-50
2024/04/09 05:09:50;;;;;;;22.48;20.40;;;;;;;;;;5408427;26;20014;-53
2024/04/09 05:12:16;;;;;;;37.83;34.35;;;;;;;;;;5440358;26;20433;-53
2024/04/09 05:14:41;;;;;;;25.55;22.92;;;;;;;;;;5440248;26;20051;-53
2024/04/09 05:17:08;;;;;;;31.08;23.42;;;;;;;;;;5407999;26;19995;-57
2024/04/09 05:19:33;;;;;;;26.77;23.17;;;;;;;;;;5440117;26;19995;-54
2024/04/09 05:21:58;;;;;;;24.67;22.17;;;;;;;;;;5406900;26;19999;-55
2024/04/09 05:24:24;;;;;;;27.70;23.30;;;;;;;;;;5440714;26;20462;-51
2024/04/09 05:26:49;;;;;;;27.23;23.42;;;;;;;;;;5439619;26;20482;-57
2024/04/09 05:29:14;;;;;;;25.98;23.10;;;;;;;;;;5439848;26;20066;-52
2024/04/09 05:31:41;;;;;;;30.80;27.35;;;;;;;;;;5440061;26;20448;-51
2024/04/09 05:34:06;;;;;;;28.00;21.20;;;;;;;;;;5440121;26;20042;-53
2024/04/09 05:36:32;;;;;;;23.92;21.58;;;;;;;;;;5440389;26;19998;-51
2024/04/09 05:38:57;;;;;;;23.67;21.45;;;;;;;;;;5438434;26;20451;-50
2024/04/09 05:41:22;;;;;;;26.85;24.15;;;;;;;;;;5382781;26;20011;-48
2024/04/09 05:43:48;;;;;;;26.42;24.02;;;;;;;;;;5439747;26;19998;-50
2024/04/09 05:46:14;;;;;;;32.25;28.73;;;;;;;;;;5438864;26;20466;-51
2024/04/09 05:48:39;;;;;;;43.88;29.83;;;;;;;;;;5439663;26;20067;-52
2024/04/09 05:51:04;;;;;;;27.45;24.80;;;;;;;;;;5439780;26;20315;-49
2024/04/09 05:53:30;;;;;;;31.02;26.73;;;;;;;;;;5439602;26;19991;-51
2024/04/09 05:55:56;;;;;;;28.50;23.27;;;;;;;;;;5439483;26;19991;-51
2024/04/09 05:58:21;;;;;;;30.48;26.83;;;;;;;;;;5438538;26;19994;-48
2024/04/09 06:00:46;;;;;;;34.47;29.35;;;;;;;;;;5441354;26;19999;-53
2024/04/09 06:03:12;;;;;;;50.10;35.33;;;;;;;;;;5432367;26;19997;-53
2024/04/09 06:05:38;;;;;;;39.58;32.63;;;;;;;;;;5439190;26;20010;-48
2024/04/09 06:08:04;;;;;;;32.72;24.23;;;;;;;;;;5448993;26;20446;-52
2024/04/09 06:10:29;;;;;;;25.05;20.95;;;;;;;;;;5451486;26;20006;-51
2024/04/09 06:12:54;;;;;;;34.67;24.73;;;;;;;;;;5442662;26;20005;-49
2024/04/09 06:15:22;;;;;;;36.75;24.35;;;;;;;;;;5446821;26;20401;-50
2024/04/09 06:17:47;;;;;;;23.25;20.75;;;;;;;;;;5448480;26;20006;-48
2024/04/09 06:20:13;;;;;;;27.02;24.23;;;;;;;;;;5436806;26;20070;-52
2024/04/09 06:22:38;;;;;;;25.48;22.75;;;;;;;;;;5465381;26;20020;-47
2024/04/09 06:25:03;;;;;;;28.58;22.83;;;;;;;;;;5438090;26;20014;-54
2024/04/09 06:27:30;;;;;;;23.02;19.13;;;;;;;;;;5447248;26;19999;-48
2024/04/09 06:29:55;;;;;;;26.90;24.02;;;;;;;;;;5451622;26;20326;-49
2024/04/09 06:32:21;;;;;;;25.50;20.75;;;;;;;;;;5444537;26;20002;-47
2024/04/09 06:34:46;;;;;;;37.33;25.20;;;;;;;;;;5441598;26;19999;-48
2024/04/09 06:37:12;;;;;;;26.38;23.02;;;;;;;;;;5423996;26;19994;-49
2024/04/09 06:39:37;;;;;;;23.42;20.92;;;;;;;;;;5455207;26;19991;-50
2024/04/09 06:42:03;;;;;;;38.60;26.75;;;;;;;;;;5440499;26;20005;-51
2024/04/09 06:44:28;;;;;;;36.42;27.23;;;;;;;;;;5439914;26;20069;-52
2024/04/09 06:46:54;;;;;;;44.38;30.52;;;;;;;;;;5450510;26;20323;-48
2024/04/09 06:49:19;;;;;;;53.25;31.85;;;;;;;;;;5464991;26;20177;-48
2024/04/09 06:51:45;;;;;;;34.05;26.55;;;;;;;;;;5445827;26;19998;-53
2024/04/09 06:56:35;;;;;;;221.30;68.38;;;;;;;;;;5546579;25;20317;-54
2024/04/09 06:59:00;;;;;;;131.43;43.13;;;;;;;;;;5453853;26;20010;-55
2024/04/09 07:01:26;;;;;;;215.40;74.43;;;;;;;;;;5468174;26;20049;-57
2024/04/09 07:03:51;;;;;;;194.93;70.93;;;;;;;;;;5451298;26;20475;-53
2024/04/09 07:06:17;;;;;;;42.28;33.08;;;;;;;;;;5447089;26;19999;-53
2024/04/09 07:08:42;;;;;;;205.50;87.50;;;;;;;;;;5441745;26;20962;-53
2024/04/09 07:11:07;;;;;;;65.82;35.05;;;;;;;;;;5450305;26;20446;-57
2024/04/09 07:13:52;;;;;;;38.00;25.63;;;;;;;;;;5458229;26;20777;-52
2024/04/09 07:16:55;;;;;;;12.75;10.27;;;;;;;;;;5503492;25;20346;-50
2024/04/09 07:19:20;;;;;;;11.80;9.57;;;;;;;;;;5493394;25;19993;-52
2024/04/09 07:21:46;;;;;;;18.85;12.82;;;;;;;;;;5490195;25;20515;-51
2024/04/09 07:24:11;;;;;;;15.15;8.35;;;;;;;;;;5486821;25;20346;-49
2024/04/09 07:26:37;;;;;;;18.23;11.40;;;;;;;;;;5495026;25;20076;-54
2024/04/09 07:29:02;;;;;;;16.05;12.40;;;;;;;;;;5489772;25;19994;-47
2024/04/09 07:31:27;;;;;;;17.05;12.57;;;;;;;;;;5494108;25;20089;-54
2024/04/09 07:33:54;;;;;;;12.32;10.50;;;;;;;;;;5476496;25;19995;-54
2024/04/09 07:36:20;;;;;;;13.20;9.93;;;;;;;;;;5476149;26;20009;-53
2024/04/09 07:38:47;;;;;;;18.20;13.32;;;;;;;;;;5472762;25;20010;-48
2024/04/09 07:41:12;;;;;;;16.55;10.65;;;;;;;;;;5485171;26;19994;-53
2024/04/09 07:43:38;;;;;;;23.92;16.23;;;;;;;;;;5459042;25;20029;-55
2024/04/09 07:46:04;;;;;;;20.95;12.02;;;;;;;;;;5486835;25;20491;-53
2024/04/09 07:48:30;;;;;;;15.32;13.68;;;;;;;;;;5471431;25;20017;-56
2024/04/09 07:50:56;;;;;;;15.10;9.52;;;;;;;;;;5480435;25;20084;-51
2024/04/09 07:53:21;;;;;;;11.75;9.15;;;;;;;;;;5486509;25;20454;-53
2024/04/09 07:55:46;;;;;;;15.18;13.50;;;;;;;;;;5491435;25;20009;-54
2024/04/09 07:58:12;;;;;;;21.48;10.52;;;;;;;;;;5490787;25;20041;-54
2024/04/09 08:00:38;;;;;;;257.80;99.47;;;;;;;;;;5491742;25;19994;-53
2024/04/09 08:03:03;;;;;;;256.85;90.85;;;;;;;;;;5489793;25;20009;-54
2024/04/09 08:05:29;;;;;;;604.10;218.57;;;;;;;;;;5482752;25;20016;-52
2024/04/09 08:07:55;;;;;;;643.70;174.27;;;;;;;;;;5491234;25;20001;-52
2024/04/09 08:10:20;;;;;;;21.30;19.05;;;;;;;;;;5493030;25;20013;-53
2024/04/09 08:12:49;;;;;;;34.42;25.67;;;;;;;;;;5492458;25;20458;-55
2024/04/09 08:15:15;;;;;;;28.13;25.40;;;;;;;;;;5483924;25;20335;-51
2024/04/09 08:17:42;;;;;;;39.78;35.72;;;;;;;;;;5469492;25;20013;-56
2024/04/09 08:20:07;;;;;;;32.28;28.80;;;;;;;;;;5478437;26;20021;-55
2024/04/09 08:22:42;;;;;;;25.50;22.77;;;;;;;;;;5493257;25;19997;-51
2024/04/09 08:25:07;;;;;;;32.28;26.45;;;;;;;;;;5491304;25;20070;-50
2024/04/09 08:27:33;;;;;;;27.80;24.88;;;;;;;;;;5474454;26;20014;-49
2024/04/09 08:29:59;;;;;;;29.33;26.27;;;;;;;;;;5472423;26;20075;-53
2024/04/09 08:32:25;;;;;;;28.20;25.20;;;;;;;;;;5471964;26;20006;-49
2024/04/09 08:34:51;;;;;;;25.20;22.48;;;;;;;;;;5467082;26;20005;-47
2024/04/09 08:37:17;;;;;;;20.77;17.92;;;;;;;;;;5475638;26;20008;-49
2024/04/09 08:39:42;;;;;;;19.67;16.77;;;;;;;;;;5476652;26;20538;-48
2024/04/09 08:42:08;;;;;;;33.97;25.88;;;;;;;;;;5470698;26;20002;-52
2024/04/09 08:44:33;;;;;;;26.00;23.27;;;;;;;;;;5475580;26;20013;-52
2024/04/09 08:47:00;;;;;;;30.50;27.05;;;;;;;;;;5472570;26;20021;-53
2024/04/09 08:49:25;;;;;;;33.10;30.02;;;;;;;;;;5473803;26;20008;-51
2024/04/09 08:51:51;;;;;;;203.15;189.43;;;;;;;;;;5459316;26;19998;-57
2024/04/09 08:54:17;;;;;;;278.63;259.40;;;;;;;;;;5470940;26;20017;-55
2024/04/09 08:56:43;;;;;;;278.88;260.55;;;;;;;;;;5467722;26;20458;-55
2024/04/09 08:59:09;;;;;;;205.15;191.32;;;;;;;;;;5466699;26;20029;-53
2024/04/09 09:01:34;;;;;;;303.95;283.90;;;;;;;;;;5465467;26;20336;-56
2024/04/09 09:04:00;;;;;;;194.88;181.07;;;;;;;;;;5470622;26;19994;-53
2024/04/09 09:06:25;;;;;;;91.03;83.78;;;;;;;;;;5469500;26;20705;-53
2024/04/09 09:08:51;;;;;;;77.70;70.93;;;;;;;;;;5435851;26;20386;-57
2024/04/09 09:11:23;;;;;;;61.50;55.88;;;;;;;;;;5465426;26;20022;-50
2024/04/09 09:13:49;;;;;;;282.58;140.48;;;;;;;;;;5464074;26;20075;-54
2024/04/09 09:16:14;;;;;;;645.15;369.92;;;;;;;;;;5470983;25;20155;-52
2024/04/09 09:18:40;;;;;;;638.13;372.65;;;;;;;;;;5473714;26;20338;-53
2024/04/09 09:21:05;;;;;;;645.88;368.77;;;;;;;;;;5475145;26;20324;-50
2024/04/09 09:23:31;;;;;;;631.80;311.95;;;;;;;;;;5476153;26;20063;-54
2024/04/09 09:25:57;;;;;;;632.38;319.50;;;;;;;;;;5461522;26;20005;-52
2024/04/09 09:28:22;;;;;;;648.15;350.58;;;;;;;;;;5475028;26;20038;-49
2024/04/09 09:30:48;;;;;;;645.53;365.20;;;;;;;;;;5464943;26;20484;-50
2024/04/09 09:33:26;;;;;;;642.55;357.05;;;;;;;;;;5473777;26;20426;-53
2024/04/09 09:35:52;;;;;;;641.42;353.30;;;;;;;;;;5458550;26;20006;-54
2024/04/09 09:38:17;;;;;;;641.13;354.10;;;;;;;;;;5473394;26;20038;-51
2024/04/09 09:40:48;;;;;;;647.70;375.23;;;;;;;;;;5468949;26;19999;-51
2024/04/09 09:43:17;;;;;;;654.22;390.20;;;;;;;;;;5469173;26;19999;-53
2024/04/09 09:45:43;;;;;;;652.80;388.95;;;;;;;;;;5466119;26;20005;-51
2024/04/09 09:48:10;;;;;;;637.95;330.58;;;;;;;;;;5460626;26;20454;-54
2024/04/09 09:50:36;;;;;;;633.17;300.83;;;;;;;;;;5464388;26;20016;-48
2024/04/09 09:53:02;;;;;;;642.30;325.33;;;;;;;;;;5456928;26;20479;-50
2024/04/09 09:55:29;;;;;;;646.38;353.02;;;;;;;;;;5460028;26;19995;-52
2024/04/09 09:57:55;;;;;;;630.42;296.30;;;;;;;;;;5462959;26;20006;-50
2024/04/09 10:00:21;;;;;;;626.58;291.25;;;;;;;;;;5463867;26;19998;-55
2024/04/09 10:02:46;;;;;;;631.22;296.77;;;;;;;;;;5462457;26;20009;-54
2024/04/09 10:05:13;;;;;;;650.00;316.45;;;;;;;;;;5469070;26;20381;-51
2024/04/09 10:07:39;;;;;;;647.55;341.77;;;;;;;;;;5471467;26;19994;-57
2024/04/09 10:10:04;;;;;;;641.78;333.98;;;;;;;;;;5472059;26;20415;-51
2024/04/09 10:12:34;;;;;;;635.17;317.40;;;;;;;;;;5474467;26;20463;-54
2024/04/09 10:15:03;;;;;;;653.00;348.83;;;;;;;;;;5473946;26;20002;-51
2024/04/09 10:17:47;;;;;;;639.45;334.20;;;;;;;;;;5469848;26;20100;-51
2024/04/09 10:20:19;;;;;;;655.85;363.35;;;;;;;;;;5473269;26;20013;-49
2024/04/09 10:22:44;;;;;;;635.78;323.42;;;;;;;;;;5473125;26;20482;-52
2024/04/09 10:25:23;;;;;;;640.08;342.13;;;;;;;;;;5467344;26;19997;-51
2024/04/09 10:27:59;;;;;;;647.83;379.83;;;;;;;;;;5472076;26;19994;-52
2024/04/09 10:30:26;;;;;;;663.20;356.67;;;;;;;;;;5471053;26;20038;-48
2024/04/09 10:32:57;;;;;;;653.05;354.25;;;;;;;;;;5466791;26;20010;-49
2024/04/09 10:35:23;;;;;;;641.05;300.42;;;;;;;;;;5473053;26;20013;-46
2024/04/09 10:37:52;;;;;;;668.42;299.38;;;;;;;;;;5473697;26;19998;-47
2024/04/09 10:40:17;;;;;;;649.53;324.55;;;;;;;;;;5474620;26;20096;-47
2024/04/09 10:42:43;;;;;;;658.38;322.10;;;;;;;;;;5472714;26;20005;-47
2024/04/09 10:45:08;;;;;;;638.70;288.15;;;;;;;;;;5472899;26;19998;-49
2024/04/09 10:47:34;;;;;;;662.42;344.40;;;;;;;;;;5466191;26;20022;-48
2024/04/09 10:49:59;;;;;;;629.40;209.50;;;;;;;;;;5467596;26;20074;-47
2024/04/09 10:52:24;;;;;;;656.00;271.60;;;;;;;;;;5473281;26;20345;-48
2024/04/09 10:54:50;;;;;;;24.00;21.38;;;;;;;;;;5465158;26;20046;-48
2024/04/09 10:57:15;;;;;;;22.63;17.67;;;;;;;;;;5458858;26;20055;-47
2024/04/09 10:59:40;;;;;;;31.00;25.05;;;;;;;;;;5467053;26;20050;-47
2024/04/09 11:02:08;;;;;;;41.28;23.80;;;;;;;;;;5456630;26;20023;-48
2024/04/09 11:04:34;;;;;;;24.43;21.13;;;;;;;;;;5461022;26;20013;-46
2024/04/09 11:07:02;;;;;;;19.15;17.17;;;;;;;;;;5466566;26;20013;-43
2024/04/09 11:09:27;;;;;;;25.10;20.23;;;;;;;;;;5448428;26;19994;-48
2024/04/09 11:11:53;;;;;;;19.88;17.08;;;;;;;;;;5459384;26;20010;-43
2024/04/09 11:14:18;;;;;;;16.42;14.02;;;;;;;;;;5472683;26;20005;-46
2024/04/09 11:16:47;;;;;;;23.10;18.50;;;;;;;;;;5472999;26;20499;-46
2024/04/09 11:19:18;;;;;;;25.50;18.48;;;;;;;;;;5473705;26;19999;-48
2024/04/09 11:21:44;;;;;;;24.25;20.42;;;;;;;;;;5424550;26;20433;-46
2024/04/09 11:24:09;;;;;;;108.10;53.83;;;;;;;;;;5448109;26;19998;-44
2024/04/09 11:26:35;;;;;;;109.20;53.05;;;;;;;;;;5454655;26;20750;-47
2024/04/09 11:29:00;;;;;;;645.88;204.75;;;;;;;;;;5457657;26;19994;-45
2024/04/09 11:31:26;;;;;;;34.50;31.63;;;;;;;;;;5462115;26;19998;-51
2024/04/09 11:33:51;;;;;;;24.13;21.90;;;;;;;;;;5446908;26;20074;-49
2024/04/09 11:36:17;;;;;;;24.27;21.70;;;;;;;;;;5455141;26;20070;-49
2024/04/09 11:38:42;;;;;;;27.08;23.80;;;;;;;;;;5461845;26;20001;-46
2024/04/09 11:41:08;;;;;;;49.25;29.25;;;;;;;;;;5457929;26;20349;-48
2024/04/09 11:43:34;;;;;;;24.60;22.23;;;;;;;;;;5466858;26;20021;-50
2024/04/09 11:46:00;;;;;;;28.30;21.13;;;;;;;;;;5473031;25;20013;-47
2024/04/09 11:48:25;;;;;;;28.48;22.48;;;;;;;;;;5452333;26;20619;-47
2024/04/09 11:50:50;;;;;;;26.48;23.20;;;;;;;;;;5448172;26;19999;-46
2024/04/09 11:53:16;;;;;;;29.88;22.75;;;;;;;;;;5433474;26;20018;-46
2024/04/09 11:55:41;;;;;;;43.10;25.40;;;;;;;;;;5460633;26;19994;-48
2024/04/09 11:58:07;;;;;;;25.33;22.80;;;;;;;;;;5454526;26;20007;-49
2024/04/09 12:00:32;;;;;;;31.00;27.83;;;;;;;;;;5459636;26;19998;-50
2024/04/09 12:02:57;;;;;;;25.05;22.60;;;;;;;;;;5457923;26;20009;-49
2024/04/09 12:05:22;;;;;;;32.58;29.27;;;;;;;;;;5473927;26;20002;-47
2024/04/09 12:07:48;;;;;;;29.50;24.45;;;;;;;;;;5475237;26;19998;-51
2024/04/09 12:10:13;;;;;;;26.15;20.38;;;;;;;;;;5475523;26;20888;-48
2024/04/09 12:12:38;;;;;;;34.95;30.35;;;;;;;;;;5472244;26;19994;-48
2024/04/09 12:15:04;;;;;;;24.25;21.92;;;;;;;;;;5473141;26;20413;-48
2024/04/09 12:17:30;;;;;;;23.75;21.50;;;;;;;;;;5453831;26;19999;-51
2024/04/09 12:19:55;;;;;;;36.17;25.13;;;;;;;;;;5475860;26;19994;-51
2024/04/09 12:22:20;;;;;;;28.55;25.58;;;;;;;;;;5475249;26;19998;-44
2024/04/09 12:24:45;;;;;;;26.10;23.85;;;;;;;;;;5463078;26;20010;-49
2024/04/09 12:27:11;;;;;;;471.45;281.00;;;;;;;;;;5472586;26;20067;-48
2024/04/09 12:29:36;;;;;;;681.90;387.38;;;;;;;;;;5470528;26;20357;-48
2024/04/09 12:32:03;;;;;;;681.03;414.02;;;;;;;;;;5473351;26;20041;-48
2024/04/09 12:34:29;;;;;;;671.55;385.15;;;;;;;;;;5465447;26;19998;-51
2024/04/09 12:36:54;;;;;;;673.33;384.55;;;;;;;;;;5474427;26;20030;-48
2024/04/09 12:39:19;;;;;;;673.47;393.58;;;;;;;;;;5475718;26;20453;-50
2024/04/09 12:41:45;;;;;;;681.65;399.48;;;;;;;;;;5465048;26;20063;-47
2024/04/09 12:44:10;;;;;;;660.70;313.60;;;;;;;;;;5466289;26;20009;-47
2024/04/09 12:46:36;;;;;;;669.28;380.90;;;;;;;;;;5476198;26;20330;-49
2024/04/09 12:49:02;;;;;;;659.53;350.33;;;;;;;;;;5472771;26;19998;-50
2024/04/09 12:51:28;;;;;;;668.20;353.77;;;;;;;;;;5470970;26;19998;-47
2024/04/09 12:53:53;;;;;;;644.70;253.90;;;;;;;;;;5474988;26;20017;-50
2024/04/09 12:56:20;;;;;;;642.85;212.13;;;;;;;;;;5473250;26;20652;-51
2024/04/09 12:58:45;;;;;;;639.97;216.88;;;;;;;;;;5467161;26;21026;-52
2024/04/09 13:01:10;;;;;;;30.52;27.52;;;;;;;;;;5469921;26;19994;-54
2024/04/09 13:03:36;;;;;;;24.23;22.05;;;;;;;;;;5474338;26;20478;-50
2024/04/09 13:06:01;;;;;;;25.80;23.17;;;;;;;;;;5474566;26;20006;-49
2024/04/09 13:08:27;;;;;;;27.00;24.38;;;;;;;;;;5485292;26;20451;-48
2024/04/09 13:10:52;;;;;;;27.30;24.45;;;;;;;;;;5474502;25;20002;-46
2024/04/09 13:13:17;;;;;;;24.63;22.23;;;;;;;;;;5460089;26;19998;-51
2024/04/09 13:15:43;;;;;;;27.42;24.73;;;;;;;;;;5460708;26;20002;-51
2024/04/09 13:18:08;;;;;;;25.75;17.80;;;;;;;;;;5464747;26;19993;-48
2024/04/09 13:20:34;;;;;;;26.98;19.75;;;;;;;;;;5474197;25;20016;-49
2024/04/09 13:22:59;;;;;;;22.17;19.77;;;;;;;;;;5473881;26;20002;-48
2024/04/09 13:25:24;;;;;;;18.35;16.60;;;;;;;;;;5474351;26;19998;-48
2024/04/09 13:27:49;;;;;;;23.15;20.40;;;;;;;;;;5473865;26;20010;-48
2024/04/09 13:30:15;;;;;;;17.38;15.23;;;;;;;;;;5471407;26;20520;-52
2024/04/09 13:32:40;;;;;;;26.25;22.08;;;;;;;;;;5472006;26;20434;-44
2024/04/09 13:35:06;;;;;;;24.52;21.95;;;;;;;;;;5473319;26;20021;-46
2024/04/09 13:37:34;;;;;;;25.55;20.60;;;;;;;;;;5473904;26;20084;-48
2024/04/09 13:40:00;;;;;;;16.45;14.57;;;;;;;;;;5473145;26;19998;-46
2024/04/09 13:42:25;;;;;;;25.38;19.63;;;;;;;;;;5471565;26;20009;-48
2024/04/09 13:44:50;;;;;;;35.40;20.08;;;;;;;;;;5470706;26;20057;-48
2024/04/09 13:47:16;;;;;;;26.42;21.45;;;;;;;;;;5464818;26;20005;-48
2024/04/09 13:49:42;;;;;;;22.85;20.23;;;;;;;;;;5465944;26;19994;-48
2024/04/09 13:52:07;;;;;;;22.95;20.52;;;;;;;;;;5472331;26;20005;-47
2024/04/09 13:54:32;;;;;;;28.27;22.15;;;;;;;;;;5473621;26;20418;-48
2024/04/09 13:56:58;;;;;;;20.90;16.60;;;;;;;;;;5465461;26;20462;-48
2024/04/09 13:59:24;;;;;;;25.13;20.85;;;;;;;;;;5472742;26;20017;-47
2024/04/09 14:01:49;;;;;;;34.28;24.80;;;;;;;;;;5454570;26;20010;-51
2024/04/09 14:04:15;;;;;;;28.13;23.38;;;;;;;;;;5463173;26;20351;-46
2024/04/09 14:06:40;;;;;;;19.10;17.15;;;;;;;;;;5457754;26;20670;-46